CDT,Max TemperatureF,Mean TemperatureF,Min TemperatureF,Max Dew PointF,MeanDew PointF,Min DewpointF,Max Humidity, Mean Humidity, Min Humidity, Max Sea Level PressureIn, Mean Sea Level PressureIn, Min Sea Level PressureIn, Max VisibilityMiles, Mean VisibilityMiles, Min VisibilityMiles, Max Wind SpeedMPH, Mean Wind SpeedMPH, Max Gust SpeedMPH,PrecipitationIn, CloudCover, Events, WindDirDegrees
2011-10-1,78,61,43,43,38,34,89,55,20,30.28,30.22,30.17,10,10,10,13,5,20,0.00,0,,141
2011-10-2,83,66,49,45,38,35,66,42,18,30.26,30.17,30.09,10,10,10,18,10,23,0.00,0,,153
2011-10-3,90,73,55,45,42,38,61,40,19,30.16,30.10,30.04,10,10,10,25,14,32,0.00,0,,163
2011-10-4,90,74,58,45,42,39,49,34,19,30.20,30.11,30.05,10,10,10,23,13,25,0.00,0,,161
2011-10-5,84,69,54,47,44,41,59,43,26,30.11,30.03,29.95,10,10,10,30,14,39,0.00,4,,160
2011-10-6,85,75,64,50,45,43,51,38,24,29.95,29.89,29.81,10,10,10,33,21,43,0.01,4,Rain,155
2011-10-7,82,75,68,62,57,47,64,53,41,30.01,29.92,29.86,10,10,10,31,21,38,0.00,5,,158
2011-10-8,77,69,61,64,59,52,100,77,53,30.09,30.02,29.91,10,8,2,31,12,37,0.84,6,Rain,156
2011-10-9,63,60,57,61,59,55,100,97,93,30.10,30.06,30.04,10,8,4,14,6,16,0.97,8,Rain,245
2011-10-10,70,62,53,58,55,52,100,81,61,30.10,30.04,29.97,10,9,4,8,4,,0.00,5,,252
2011-10-11,76,65,53,58,55,52,100,73,46,29.96,29.86,29.76,10,10,8,22,11,26,0.00,6,,165
2011-10-12,79,67,54,57,51,45,100,66,32,29.89,29.77,29.72,10,10,10,31,13,38,T,2,,284
2011-10-13,76,63,49,44,40,33,71,46,21,29.99,29.92,29.86,10,10,10,20,9,24,0.00,1,,293
2011-10-14,75,62,48,43,38,30,74,48,22,30.10,29.98,29.87,10,10,10,18,8,22,0.00,2,,34
2011-10-15,78,61,44,54,44,38,86,57,27,30.12,30.02,29.91,10,10,10,18,8,22,0.00,2,,176
2011-10-16,75,65,54,54,47,39,80,58,35,30.01,29.93,29.85,10,10,10,26,13,31,0.00,2,,26
2011-10-17,64,56,47,41,35,27,63,48,32,30.09,29.93,29.80,10,10,10,28,17,37,T,6,Rain,36
2011-10-18,59,50,40,43,33,21,89,57,24,30.13,30.10,30.07,10,10,10,32,16,39,T,3,Rain,337
2011-10-19,58,45,32,30,27,24,76,52,28,30.17,30.10,30.06,10,10,10,28,12,37,0.00,1,,338
2011-10-20,61,45,28,32,28,25,85,57,29,30.16,30.10,30.05,10,10,10,8,2,22,0.00,1,,338
2011-10-21,74,56,37,40,32,30,76,48,20,30.18,30.11,30.06,10,10,10,18,7,23,0.00,3,,187
2011-10-22,72,58,43,50,45,38,83,64,44,30.09,30.05,29.97,10,10,10,9,2,12,0.00,3,,101
2011-10-23,81,61,41,54,45,39,96,61,26,30.07,30.02,29.96,10,9,4,15,4,18,0.00,0,,241
2011-10-24,84,62,40,55,47,39,93,59,24,30.13,30.04,29.92,10,9,3,28,12,32,0.00,1,,178
2011-10-25,86,72,58,56,49,40,84,52,20,29.92,29.83,29.75,10,10,10,30,16,38,0.00,3,,228
2011-10-26,62,55,47,43,39,36,66,53,39,30.13,30.02,29.90,10,10,10,25,18,33,0.00,7,,14
2011-10-27,57,46,35,39,34,29,83,62,40,30.22,30.16,30.12,10,10,10,22,8,26,0.01,6,Rain,5
2011-10-28,64,47,30,34,29,23,92,58,23,30.30,30.25,30.21,10,10,7,13,3,24,0.00,1,,298
2011-10-29,69,50,30,34,30,26,85,54,22,30.21,30.08,29.94,10,10,10,29,14,36,0.00,3,,186
2011-10-30,64,51,37,36,31,25,85,54,23,30.17,30.10,29.95,10,10,10,21,8,28,0.00,3,,291
2011-10-31,74,55,35,46,37,28,76,53,29,30.16,30.06,29.97,10,10,10,21,11,24,0.00,0,,195